Weather at Charlottesville Albemarle Airport

Public forecast

Using degrees Fahrenheit for public forecast. Weather courtesy of forecast.io.

Current aviation weather report (METAR) for Charlottesville Albemarle Airport

Retrieved 2021/05/12 16:53 UTC (44 minutes ago):

KCHO 121653Z 00000KT 10SM CLR 14/M01 A3028 RMK AO2 SLP249 T01441006

Aviation forecast (TAF) for Charlottesville Albemarle Airport

Retrieved 2021/05/12 12:42 UTC (5 hours ago):

TAF KCHO 121140Z 1212/1312 35006KT P6SM OVC100 FM121700 02007KT P6SM SCT130 BKN200 FM130000 VRB03KT P6SM FEW060